sensor_id;sensor_type;location;lat;lon;timestamp;P1;durP1;ratioP1;P2;durP2;ratioP2
67500;SDS011;54349;52.528;19.760;2022-11-14T00:00:56;11.40;;;6.60;;
67500;SDS011;54349;52.528;19.760;2022-11-14T00:03:43;12.20;;;6.50;;
67500;SDS011;54349;52.528;19.760;2022-11-14T00:06:31;10.60;;;7.00;;
67500;SDS011;54349;52.528;19.760;2022-11-14T00:09:17;10.40;;;6.60;;
67500;SDS011;54349;52.528;19.760;2022-11-14T00:12:05;8.90;;;6.30;;
67500;SDS011;54349;52.528;19.760;2022-11-14T00:14:52;10.40;;;6.60;;
67500;SDS011;54349;52.528;19.760;2022-11-14T00:17:42;11.90;;;6.80;;
67500;SDS011;54349;52.528;19.760;2022-11-14T00:20:30;9.50;;;6.50;;
67500;SDS011;54349;52.528;19.760;2022-11-14T00:23:19;10.60;;;6.60;;
67500;SDS011;54349;52.528;19.760;2022-11-14T00:26:06;9.40;;;6.50;;
67500;SDS011;54349;52.528;19.760;2022-11-14T00:28:54;10.90;;;6.90;;
67500;SDS011;54349;52.528;19.760;2022-11-14T00:31:41;11.40;;;6.90;;
67500;SDS011;54349;52.528;19.760;2022-11-14T00:34:28;11.20;;;6.70;;
67500;SDS011;54349;52.528;19.760;2022-11-14T00:37:15;11.00;;;6.60;;
67500;SDS011;54349;52.528;19.760;2022-11-14T00:40:03;10.90;;;6.90;;
67500;SDS011;54349;52.528;19.760;2022-11-14T00:42:50;9.90;;;6.40;;
67500;SDS011;54349;52.528;19.760;2022-11-14T00:45:37;11.10;;;6.50;;
67500;SDS011;54349;52.528;19.760;2022-11-14T00:48:23;11.80;;;7.00;;
67500;SDS011;54349;52.528;19.760;2022-11-14T00:51:11;10.10;;;6.20;;
67500;SDS011;54349;52.528;19.760;2022-11-14T00:53:58;9.00;;;6.20;;
67500;SDS011;54349;52.528;19.760;2022-11-14T00:56:45;9.70;;;6.10;;
67500;SDS011;54349;52.528;19.760;2022-11-14T00:59:32;9.60;;;5.80;;
67500;SDS011;54349;52.528;19.760;2022-11-14T01:02:18;10.00;;;6.40;;
67500;SDS011;54349;52.528;19.760;2022-11-14T01:05:05;9.30;;;5.90;;
67500;SDS011;54349;52.528;19.760;2022-11-14T01:07:53;8.40;;;5.60;;
67500;SDS011;54349;52.528;19.760;2022-11-14T01:10:45;9.10;;;5.80;;
67500;SDS011;54349;52.528;19.760;2022-11-14T01:13:33;10.20;;;5.60;;
67500;SDS011;54349;52.528;19.760;2022-11-14T01:16:20;9.60;;;5.40;;
67500;SDS011;54349;52.528;19.760;2022-11-14T01:19:07;8.00;;;5.40;;
67500;SDS011;54349;52.528;19.760;2022-11-14T01:21:55;8.60;;;5.20;;
67500;SDS011;54349;52.528;19.760;2022-11-14T01:24:42;8.20;;;5.30;;
67500;SDS011;54349;52.528;19.760;2022-11-14T01:27:30;7.60;;;5.30;;
67500;SDS011;54349;52.528;19.760;2022-11-14T01:30:17;9.00;;;5.00;;
67500;SDS011;54349;52.528;19.760;2022-11-14T01:33:04;7.60;;;4.40;;
67500;SDS011;54349;52.528;19.760;2022-11-14T01:35:52;7.20;;;4.60;;
67500;SDS011;54349;52.528;19.760;2022-11-14T01:38:39;6.90;;;4.60;;
67500;SDS011;54349;52.528;19.760;2022-11-14T01:41:26;7.80;;;4.90;;
67500;SDS011;54349;52.528;19.760;2022-11-14T01:44:36;7.20;;;4.50;;
67500;SDS011;54349;52.528;19.760;2022-11-14T01:47:29;7.80;;;4.50;;
67500;SDS011;54349;52.528;19.760;2022-11-14T01:50:18;7.00;;;4.10;;
67500;SDS011;54349;52.528;19.760;2022-11-14T01:53:05;6.80;;;4.00;;
67500;SDS011;54349;52.528;19.760;2022-11-14T01:55:54;7.60;;;4.20;;
67500;SDS011;54349;52.528;19.760;2022-11-14T01:58:48;5.90;;;3.80;;
67500;SDS011;54349;52.528;19.760;2022-11-14T02:01:44;6.90;;;3.50;;
67500;SDS011;54349;52.528;19.760;2022-11-14T02:04:37;6.10;;;3.60;;
67500;SDS011;54349;52.528;19.760;2022-11-14T02:07:32;5.50;;;3.40;;
67500;SDS011;54349;52.528;19.760;2022-11-14T02:10:21;5.10;;;2.90;;
67500;SDS011;54349;52.528;19.760;2022-11-14T02:13:08;5.20;;;3.30;;
67500;SDS011;54349;52.528;19.760;2022-11-14T02:15:55;7.00;;;3.40;;
67500;SDS011;54349;52.528;19.760;2022-11-14T02:18:42;6.60;;;3.40;;
67500;SDS011;54349;52.528;19.760;2022-11-14T02:21:29;5.20;;;3.10;;
67500;SDS011;54349;52.528;19.760;2022-11-14T02:24:16;4.80;;;2.90;;
67500;SDS011;54349;52.528;19.760;2022-11-14T02:27:04;5.80;;;3.50;;
67500;SDS011;54349;52.528;19.760;2022-11-14T02:29:52;5.40;;;2.90;;
67500;SDS011;54349;52.528;19.760;2022-11-14T02:32:38;5.50;;;3.10;;
67500;SDS011;54349;52.528;19.760;2022-11-14T02:35:46;5.80;;;3.20;;
67500;SDS011;54349;52.528;19.760;2022-11-14T02:38:34;6.10;;;3.10;;
67500;SDS011;54349;52.528;19.760;2022-11-14T02:41:21;4.90;;;2.90;;
67500;SDS011;54349;52.528;19.760;2022-11-14T02:44:08;5.80;;;3.00;;
67500;SDS011;54349;52.528;19.760;2022-11-14T02:46:55;6.00;;;2.80;;
67500;SDS011;54349;52.528;19.760;2022-11-14T02:49:41;5.70;;;3.30;;
67500;SDS011;54349;52.528;19.760;2022-11-14T02:52:35;5.00;;;2.90;;
67500;SDS011;54349;52.528;19.760;2022-11-14T02:55:22;5.10;;;2.80;;
67500;SDS011;54349;52.528;19.760;2022-11-14T02:58:09;5.70;;;3.00;;
67500;SDS011;54349;52.528;19.760;2022-11-14T03:00:56;5.00;;;2.90;;
67500;SDS011;54349;52.528;19.760;2022-11-14T03:04:09;4.10;;;2.70;;
67500;SDS011;54349;52.528;19.760;2022-11-14T03:06:56;4.50;;;2.80;;
67500;SDS011;54349;52.528;19.760;2022-11-14T03:09:44;4.80;;;2.70;;
67500;SDS011;54349;52.528;19.760;2022-11-14T03:12:30;5.90;;;2.80;;
67500;SDS011;54349;52.528;19.760;2022-11-14T03:15:17;5.60;;;2.90;;
67500;SDS011;54349;52.528;19.760;2022-11-14T03:18:04;4.40;;;2.50;;
67500;SDS011;54349;52.528;19.760;2022-11-14T03:20:51;4.90;;;2.40;;
67500;SDS011;54349;52.528;19.760;2022-11-14T03:23:38;4.20;;;2.50;;
67500;SDS011;54349;52.528;19.760;2022-11-14T03:26:25;3.80;;;2.40;;
67500;SDS011;54349;52.528;19.760;2022-11-14T03:29:12;5.90;;;2.40;;
67500;SDS011;54349;52.528;19.760;2022-11-14T03:31:59;4.50;;;2.40;;
67500;SDS011;54349;52.528;19.760;2022-11-14T03:34:46;3.90;;;2.20;;
67500;SDS011;54349;52.528;19.760;2022-11-14T03:37:32;4.10;;;2.20;;
67500;SDS011;54349;52.528;19.760;2022-11-14T03:40:19;3.30;;;2.00;;
67500;SDS011;54349;52.528;19.760;2022-11-14T03:43:06;5.00;;;2.30;;
67500;SDS011;54349;52.528;19.760;2022-11-14T03:45:57;3.60;;;2.00;;
67500;SDS011;54349;52.528;19.760;2022-11-14T03:48:45;3.90;;;2.30;;
67500;SDS011;54349;52.528;19.760;2022-11-14T03:51:32;4.00;;;2.10;;
67500;SDS011;54349;52.528;19.760;2022-11-14T03:54:19;4.30;;;2.40;;
67500;SDS011;54349;52.528;19.760;2022-11-14T03:57:06;3.70;;;2.00;;
67500;SDS011;54349;52.528;19.760;2022-11-14T03:59:53;3.30;;;2.00;;
67500;SDS011;54349;52.528;19.760;2022-11-14T04:02:40;4.90;;;2.10;;
67500;SDS011;54349;52.528;19.760;2022-11-14T04:05:27;4.10;;;2.20;;
67500;SDS011;54349;52.528;19.760;2022-11-14T04:08:14;4.30;;;2.40;;
67500;SDS011;54349;52.528;19.760;2022-11-14T04:11:00;4.70;;;2.10;;
67500;SDS011;54349;52.528;19.760;2022-11-14T04:13:47;3.80;;;1.90;;
67500;SDS011;54349;52.528;19.760;2022-11-14T04:16:34;4.30;;;2.20;;
67500;SDS011;54349;52.528;19.760;2022-11-14T04:19:21;4.50;;;2.10;;
67500;SDS011;54349;52.528;19.760;2022-11-14T04:22:07;3.70;;;2.00;;
67500;SDS011;54349;52.528;19.760;2022-11-14T04:24:54;3.80;;;2.10;;
67500;SDS011;54349;52.528;19.760;2022-11-14T04:27:42;3.90;;;2.10;;
67500;SDS011;54349;52.528;19.760;2022-11-14T04:30:29;3.10;;;1.90;;
67500;SDS011;54349;52.528;19.760;2022-11-14T04:33:20;3.90;;;2.10;;
67500;SDS011;54349;52.528;19.760;2022-11-14T04:36:07;4.90;;;2.40;;
67500;SDS011;54349;52.528;19.760;2022-11-14T04:38:55;3.80;;;2.20;;
67500;SDS011;54349;52.528;19.760;2022-11-14T04:41:44;3.20;;;2.10;;
67500;SDS011;54349;52.528;19.760;2022-11-14T04:44:30;4.20;;;2.20;;
67500;SDS011;54349;52.528;19.760;2022-11-14T04:47:17;4.50;;;2.30;;
67500;SDS011;54349;52.528;19.760;2022-11-14T04:50:05;3.30;;;2.00;;
67500;SDS011;54349;52.528;19.760;2022-11-14T04:52:52;5.10;;;2.20;;
67500;SDS011;54349;52.528;19.760;2022-11-14T04:55:39;4.40;;;2.30;;
67500;SDS011;54349;52.528;19.760;2022-11-14T04:58:26;5.60;;;2.60;;
67500;SDS011;54349;52.528;19.760;2022-11-14T05:01:14;4.50;;;2.50;;
67500;SDS011;54349;52.528;19.760;2022-11-14T05:04:01;4.40;;;2.40;;
67500;SDS011;54349;52.528;19.760;2022-11-14T05:06:48;4.20;;;2.50;;
67500;SDS011;54349;52.528;19.760;2022-11-14T05:09:35;4.10;;;2.30;;
67500;SDS011;54349;52.528;19.760;2022-11-14T05:12:22;3.90;;;2.20;;
67500;SDS011;54349;52.528;19.760;2022-11-14T05:15:09;4.90;;;2.50;;
67500;SDS011;54349;52.528;19.760;2022-11-14T05:17:56;5.90;;;2.60;;
67500;SDS011;54349;52.528;19.760;2022-11-14T05:20:44;4.50;;;2.70;;
67500;SDS011;54349;52.528;19.760;2022-11-14T05:23:31;4.70;;;2.50;;
67500;SDS011;54349;52.528;19.760;2022-11-14T05:26:18;5.50;;;2.50;;
67500;SDS011;54349;52.528;19.760;2022-11-14T05:29:05;5.30;;;2.80;;
67500;SDS011;54349;52.528;19.760;2022-11-14T05:31:53;5.30;;;2.70;;
67500;SDS011;54349;52.528;19.760;2022-11-14T05:34:39;7.10;;;3.10;;
67500;SDS011;54349;52.528;19.760;2022-11-14T05:37:26;5.70;;;3.00;;
67500;SDS011;54349;52.528;19.760;2022-11-14T05:40:13;4.50;;;2.50;;
67500;SDS011;54349;52.528;19.760;2022-11-14T05:43:02;5.50;;;2.80;;
67500;SDS011;54349;52.528;19.760;2022-11-14T05:45:49;5.10;;;2.60;;
67500;SDS011;54349;52.528;19.760;2022-11-14T05:48:36;5.10;;;2.70;;
67500;SDS011;54349;52.528;19.760;2022-11-14T05:51:24;5.20;;;2.70;;
67500;SDS011;54349;52.528;19.760;2022-11-14T05:54:11;4.50;;;2.60;;
67500;SDS011;54349;52.528;19.760;2022-11-14T05:56:58;4.80;;;2.60;;
67500;SDS011;54349;52.528;19.760;2022-11-14T05:59:45;4.80;;;2.90;;
67500;SDS011;54349;52.528;19.760;2022-11-14T06:02:31;4.20;;;2.60;;
67500;SDS011;54349;52.528;19.760;2022-11-14T06:05:19;4.60;;;2.50;;
67500;SDS011;54349;52.528;19.760;2022-11-14T06:08:08;4.30;;;2.50;;
67500;SDS011;54349;52.528;19.760;2022-11-14T06:10:55;5.80;;;2.70;;
67500;SDS011;54349;52.528;19.760;2022-11-14T06:13:47;4.20;;;2.40;;
67500;SDS011;54349;52.528;19.760;2022-11-14T06:16:33;5.10;;;2.70;;
67500;SDS011;54349;52.528;19.760;2022-11-14T06:19:20;4.40;;;2.50;;
67500;SDS011;54349;52.528;19.760;2022-11-14T06:22:07;7.00;;;2.70;;
67500;SDS011;54349;52.528;19.760;2022-11-14T06:24:54;5.70;;;2.70;;
67500;SDS011;54349;52.528;19.760;2022-11-14T06:27:43;4.70;;;2.70;;
67500;SDS011;54349;52.528;19.760;2022-11-14T06:30:30;4.80;;;2.60;;
67500;SDS011;54349;52.528;19.760;2022-11-14T06:33:17;4.80;;;2.70;;
67500;SDS011;54349;52.528;19.760;2022-11-14T06:36:06;4.70;;;2.60;;
67500;SDS011;54349;52.528;19.760;2022-11-14T06:38:54;4.50;;;2.50;;
67500;SDS011;54349;52.528;19.760;2022-11-14T06:41:40;4.30;;;2.50;;
67500;SDS011;54349;52.528;19.760;2022-11-14T06:44:27;4.80;;;2.70;;
67500;SDS011;54349;52.528;19.760;2022-11-14T06:47:16;4.90;;;2.60;;
67500;SDS011;54349;52.528;19.760;2022-11-14T06:50:04;4.40;;;2.40;;
67500;SDS011;54349;52.528;19.760;2022-11-14T06:52:51;6.80;;;2.80;;
67500;SDS011;54349;52.528;19.760;2022-11-14T06:55:37;4.20;;;2.30;;
67500;SDS011;54349;52.528;19.760;2022-11-14T06:58:28;4.60;;;2.40;;
67500;SDS011;54349;52.528;19.760;2022-11-14T07:04:11;5.80;;;2.50;;
67500;SDS011;54349;52.528;19.760;2022-11-14T07:06:58;3.90;;;2.30;;
67500;SDS011;54349;52.528;19.760;2022-11-14T07:09:45;5.10;;;2.70;;
67500;SDS011;54349;52.528;19.760;2022-11-14T07:12:33;5.40;;;3.10;;
67500;SDS011;54349;52.528;19.760;2022-11-14T07:15:20;6.70;;;3.20;;
67500;SDS011;54349;52.528;19.760;2022-11-14T07:18:07;6.30;;;3.10;;
67500;SDS011;54349;52.528;19.760;2022-11-14T07:21:00;5.20;;;2.80;;
67500;SDS011;54349;52.528;19.760;2022-11-14T07:23:49;4.80;;;2.70;;
67500;SDS011;54349;52.528;19.760;2022-11-14T07:26:36;5.30;;;3.00;;
67500;SDS011;54349;52.528;19.760;2022-11-14T07:29:23;5.20;;;2.70;;
67500;SDS011;54349;52.528;19.760;2022-11-14T07:32:10;4.10;;;2.30;;
67500;SDS011;54349;52.528;19.760;2022-11-14T07:34:57;4.70;;;2.40;;
67500;SDS011;54349;52.528;19.760;2022-11-14T07:37:49;5.50;;;2.70;;
67500;SDS011;54349;52.528;19.760;2022-11-14T07:40:36;5.20;;;2.70;;
67500;SDS011;54349;52.528;19.760;2022-11-14T07:43:24;5.10;;;2.60;;
67500;SDS011;54349;52.528;19.760;2022-11-14T07:46:16;5.60;;;2.50;;
67500;SDS011;54349;52.528;19.760;2022-11-14T07:49:04;5.70;;;2.90;;
67500;SDS011;54349;52.528;19.760;2022-11-14T07:51:50;5.60;;;2.90;;
67500;SDS011;54349;52.528;19.760;2022-11-14T07:54:37;6.10;;;2.90;;
67500;SDS011;54349;52.528;19.760;2022-11-14T07:57:24;7.00;;;2.80;;
67500;SDS011;54349;52.528;19.760;2022-11-14T08:00:13;5.40;;;2.70;;
67500;SDS011;54349;52.528;19.760;2022-11-14T08:03:00;6.10;;;2.70;;
67500;SDS011;54349;52.528;19.760;2022-11-14T08:05:47;6.50;;;2.50;;
67500;SDS011;54349;52.528;19.760;2022-11-14T08:08:35;6.50;;;2.70;;
67500;SDS011;54349;52.528;19.760;2022-11-14T08:11:22;6.00;;;2.60;;
67500;SDS011;54349;52.528;19.760;2022-11-14T08:14:28;4.80;;;2.50;;
67500;SDS011;54349;52.528;19.760;2022-11-14T08:17:15;5.00;;;2.80;;
67500;SDS011;54349;52.528;19.760;2022-11-14T08:20:04;4.20;;;2.50;;
67500;SDS011;54349;52.528;19.760;2022-11-14T08:23:03;5.50;;;2.70;;
67500;SDS011;54349;52.528;19.760;2022-11-14T08:25:52;6.60;;;2.80;;
67500;SDS011;54349;52.528;19.760;2022-11-14T08:28:39;6.70;;;3.10;;
67500;SDS011;54349;52.528;19.760;2022-11-14T08:31:26;5.40;;;2.80;;
67500;SDS011;54349;52.528;19.760;2022-11-14T08:34:14;3.80;;;2.30;;
67500;SDS011;54349;52.528;19.760;2022-11-14T08:37:02;4.80;;;2.70;;
67500;SDS011;54349;52.528;19.760;2022-11-14T08:39:49;6.60;;;3.00;;
67500;SDS011;54349;52.528;19.760;2022-11-14T08:42:36;5.00;;;2.60;;
67500;SDS011;54349;52.528;19.760;2022-11-14T08:45:23;6.10;;;2.70;;
67500;SDS011;54349;52.528;19.760;2022-11-14T08:48:09;5.00;;;2.50;;
67500;SDS011;54349;52.528;19.760;2022-11-14T08:51:01;5.10;;;2.60;;
67500;SDS011;54349;52.528;19.760;2022-11-14T08:53:51;4.70;;;2.80;;
67500;SDS011;54349;52.528;19.760;2022-11-14T08:56:38;5.10;;;2.70;;
67500;SDS011;54349;52.528;19.760;2022-11-14T08:59:25;4.80;;;2.60;;
67500;SDS011;54349;52.528;19.760;2022-11-14T09:02:12;5.60;;;2.60;;
67500;SDS011;54349;52.528;19.760;2022-11-14T09:04:59;4.80;;;2.50;;
67500;SDS011;54349;52.528;19.760;2022-11-14T09:07:46;5.30;;;2.90;;
67500;SDS011;54349;52.528;19.760;2022-11-14T09:10:33;5.20;;;2.70;;
67500;SDS011;54349;52.528;19.760;2022-11-14T09:13:20;4.90;;;2.90;;
67500;SDS011;54349;52.528;19.760;2022-11-14T09:16:08;5.20;;;2.80;;
67500;SDS011;54349;52.528;19.760;2022-11-14T09:18:55;4.20;;;2.50;;
67500;SDS011;54349;52.528;19.760;2022-11-14T09:21:42;4.30;;;2.70;;
67500;SDS011;54349;52.528;19.760;2022-11-14T09:24:28;4.80;;;2.60;;
67500;SDS011;54349;52.528;19.760;2022-11-14T09:27:15;4.40;;;2.70;;
67500;SDS011;54349;52.528;19.760;2022-11-14T09:30:03;4.80;;;2.80;;
67500;SDS011;54349;52.528;19.760;2022-11-14T09:32:51;6.40;;;3.00;;
67500;SDS011;54349;52.528;19.760;2022-11-14T09:35:38;4.60;;;2.80;;
67500;SDS011;54349;52.528;19.760;2022-11-14T09:38:26;4.50;;;2.80;;
67500;SDS011;54349;52.528;19.760;2022-11-14T09:41:22;5.10;;;3.10;;
67500;SDS011;54349;52.528;19.760;2022-11-14T09:44:27;6.50;;;2.90;;
67500;SDS011;54349;52.528;19.760;2022-11-14T09:47:40;5.10;;;2.80;;
67500;SDS011;54349;52.528;19.760;2022-11-14T09:50:32;5.60;;;2.90;;
67500;SDS011;54349;52.528;19.760;2022-11-14T09:53:30;5.20;;;3.10;;
67500;SDS011;54349;52.528;19.760;2022-11-14T09:56:33;5.40;;;2.90;;
67500;SDS011;54349;52.528;19.760;2022-11-14T09:59:20;4.40;;;2.80;;
67500;SDS011;54349;52.528;19.760;2022-11-14T10:05:41;5.00;;;2.90;;
67500;SDS011;54349;52.528;19.760;2022-11-14T10:08:48;5.10;;;3.10;;
67500;SDS011;54349;52.528;19.760;2022-11-14T10:15:25;5.80;;;3.00;;
67500;SDS011;54349;52.528;19.760;2022-11-14T10:18:37;5.40;;;3.10;;
67500;SDS011;54349;52.528;19.760;2022-11-14T10:21:45;5.40;;;2.80;;
67500;SDS011;54349;52.528;19.760;2022-11-14T10:31:21;8.00;;;3.40;;
67500;SDS011;54349;52.528;19.760;2022-11-14T10:34:54;6.50;;;3.30;;
67500;SDS011;54349;52.528;19.760;2022-11-14T10:41:04;5.60;;;3.50;;
67500;SDS011;54349;52.528;19.760;2022-11-14T10:43:53;7.00;;;3.50;;
67500;SDS011;54349;52.528;19.760;2022-11-14T10:46:53;5.20;;;3.20;;
67500;SDS011;54349;52.528;19.760;2022-11-14T10:49:45;6.00;;;3.40;;
67500;SDS011;54349;52.528;19.760;2022-11-14T10:52:38;6.60;;;3.30;;
67500;SDS011;54349;52.528;19.760;2022-11-14T10:55:28;6.40;;;3.40;;
67500;SDS011;54349;52.528;19.760;2022-11-14T10:58:35;5.00;;;3.30;;
67500;SDS011;54349;52.528;19.760;2022-11-14T11:01:39;6.20;;;3.60;;
67500;SDS011;54349;52.528;19.760;2022-11-14T11:04:35;6.30;;;3.40;;
67500;SDS011;54349;52.528;19.760;2022-11-14T11:07:27;7.60;;;3.80;;
67500;SDS011;54349;52.528;19.760;2022-11-14T11:10:37;6.80;;;3.80;;
67500;SDS011;54349;52.528;19.760;2022-11-14T11:13:54;7.40;;;4.00;;
67500;SDS011;54349;52.528;19.760;2022-11-14T11:16:45;7.30;;;3.90;;
67500;SDS011;54349;52.528;19.760;2022-11-14T11:19:32;6.30;;;3.80;;
67500;SDS011;54349;52.528;19.760;2022-11-14T11:22:49;7.50;;;3.70;;
67500;SDS011;54349;52.528;19.760;2022-11-14T11:25:58;7.90;;;4.00;;
67500;SDS011;54349;52.528;19.760;2022-11-14T11:31:58;7.80;;;4.10;;
67500;SDS011;54349;52.528;19.760;2022-11-14T11:34:45;7.90;;;3.80;;
67500;SDS011;54349;52.528;19.760;2022-11-14T11:37:55;7.70;;;3.80;;
67500;SDS011;54349;52.528;19.760;2022-11-14T11:40:50;7.00;;;3.90;;
67500;SDS011;54349;52.528;19.760;2022-11-14T11:43:46;8.30;;;3.90;;
67500;SDS011;54349;52.528;19.760;2022-11-14T11:46:54;7.40;;;3.90;;
67500;SDS011;54349;52.528;19.760;2022-11-14T11:49:50;6.20;;;3.40;;
67500;SDS011;54349;52.528;19.760;2022-11-14T11:52:46;7.40;;;3.50;;
67500;SDS011;54349;52.528;19.760;2022-11-14T11:55:43;6.90;;;3.70;;
67500;SDS011;54349;52.528;19.760;2022-11-14T11:58:50;6.90;;;3.70;;
67500;SDS011;54349;52.528;19.760;2022-11-14T12:01:42;6.30;;;3.40;;
67500;SDS011;54349;52.528;19.760;2022-11-14T12:04:29;6.30;;;3.60;;
67500;SDS011;54349;52.528;19.760;2022-11-14T12:07:23;9.30;;;4.00;;
67500;SDS011;54349;52.528;19.760;2022-11-14T12:10:23;8.40;;;3.50;;
67500;SDS011;54349;52.528;19.760;2022-11-14T12:13:25;6.60;;;3.80;;
67500;SDS011;54349;52.528;19.760;2022-11-14T12:27:13;7.70;;;3.50;;
67500;SDS011;54349;52.528;19.760;2022-11-14T12:30:14;6.50;;;3.60;;
67500;SDS011;54349;52.528;19.760;2022-11-14T12:33:11;6.60;;;3.60;;
67500;SDS011;54349;52.528;19.760;2022-11-14T12:36:08;7.20;;;3.70;;
67500;SDS011;54349;52.528;19.760;2022-11-14T12:38:58;6.70;;;3.60;;
67500;SDS011;54349;52.528;19.760;2022-11-14T12:41:46;7.30;;;4.10;;
67500;SDS011;54349;52.528;19.760;2022-11-14T12:44:35;7.00;;;3.70;;
67500;SDS011;54349;52.528;19.760;2022-11-14T12:47:25;7.10;;;3.90;;
67500;SDS011;54349;52.528;19.760;2022-11-14T12:50:38;6.80;;;4.00;;
67500;SDS011;54349;52.528;19.760;2022-11-14T13:09:00;6.40;;;3.90;;
67500;SDS011;54349;52.528;19.760;2022-11-14T13:16:05;6.80;;;3.90;;
67500;SDS011;54349;52.528;19.760;2022-11-14T13:19:26;7.60;;;4.20;;
67500;SDS011;54349;52.528;19.760;2022-11-14T13:25:27;7.30;;;4.10;;
67500;SDS011;54349;52.528;19.760;2022-11-14T13:31:25;6.40;;;3.90;;
67500;SDS011;54349;52.528;19.760;2022-11-14T13:34:42;7.40;;;4.00;;
67500;SDS011;54349;52.528;19.760;2022-11-14T13:37:50;8.20;;;4.30;;
67500;SDS011;54349;52.528;19.760;2022-11-14T13:44:33;8.00;;;4.10;;
67500;SDS011;54349;52.528;19.760;2022-11-14T13:51:08;7.30;;;4.20;;
67500;SDS011;54349;52.528;19.760;2022-11-14T13:54:18;7.80;;;4.40;;
67500;SDS011;54349;52.528;19.760;2022-11-14T14:00:28;8.10;;;4.00;;
67500;SDS011;54349;52.528;19.760;2022-11-14T14:07:17;6.90;;;4.30;;
67500;SDS011;54349;52.528;19.760;2022-11-14T14:13:50;9.00;;;5.20;;
67500;SDS011;54349;52.528;19.760;2022-11-14T14:22:53;8.10;;;5.30;;
67500;SDS011;54349;52.528;19.760;2022-11-14T14:29:25;10.00;;;5.90;;
67500;SDS011;54349;52.528;19.760;2022-11-14T14:32:11;10.10;;;5.80;;
67500;SDS011;54349;52.528;19.760;2022-11-14T14:35:34;8.80;;;6.10;;
67500;SDS011;54349;52.528;19.760;2022-11-14T14:38:27;9.80;;;5.90;;
67500;SDS011;54349;52.528;19.760;2022-11-14T14:41:17;10.60;;;5.80;;
67500;SDS011;54349;52.528;19.760;2022-11-14T14:47:39;11.00;;;6.20;;
67500;SDS011;54349;52.528;19.760;2022-11-14T14:50:40;12.10;;;6.50;;
67500;SDS011;54349;52.528;19.760;2022-11-14T14:53:52;10.30;;;6.30;;
67500;SDS011;54349;52.528;19.760;2022-11-14T14:56:51;8.50;;;6.00;;
67500;SDS011;54349;52.528;19.760;2022-11-14T14:59:40;12.90;;;6.80;;
67500;SDS011;54349;52.528;19.760;2022-11-14T15:02:28;10.70;;;6.80;;
67500;SDS011;54349;52.528;19.760;2022-11-14T15:05:23;13.60;;;7.00;;
67500;SDS011;54349;52.528;19.760;2022-11-14T15:08:13;12.00;;;7.20;;
67500;SDS011;54349;52.528;19.760;2022-11-14T15:11:02;12.10;;;7.50;;
67500;SDS011;54349;52.528;19.760;2022-11-14T15:13:53;11.70;;;7.10;;
67500;SDS011;54349;52.528;19.760;2022-11-14T15:16:44;13.10;;;7.80;;
67500;SDS011;54349;52.528;19.760;2022-11-14T15:19:41;12.90;;;8.10;;
67500;SDS011;54349;52.528;19.760;2022-11-14T15:22:30;13.30;;;8.30;;
67500;SDS011;54349;52.528;19.760;2022-11-14T15:25:20;13.80;;;8.20;;
67500;SDS011;54349;52.528;19.760;2022-11-14T15:28:19;13.20;;;8.20;;
67500;SDS011;54349;52.528;19.760;2022-11-14T15:31:15;15.30;;;9.20;;
67500;SDS011;54349;52.528;19.760;2022-11-14T15:34:22;13.80;;;8.60;;
67500;SDS011;54349;52.528;19.760;2022-11-14T15:37:19;15.10;;;8.60;;
67500;SDS011;54349;52.528;19.760;2022-11-14T15:40:20;13.90;;;9.20;;
67500;SDS011;54349;52.528;19.760;2022-11-14T15:46:41;13.40;;;8.40;;
67500;SDS011;54349;52.528;19.760;2022-11-14T15:49:31;15.80;;;9.10;;
67500;SDS011;54349;52.528;19.760;2022-11-14T15:52:22;16.00;;;9.70;;
67500;SDS011;54349;52.528;19.760;2022-11-14T15:55:14;14.50;;;9.30;;
67500;SDS011;54349;52.528;19.760;2022-11-14T15:58:10;14.20;;;9.00;;
67500;SDS011;54349;52.528;19.760;2022-11-14T16:01:19;18.30;;;10.60;;
67500;SDS011;54349;52.528;19.760;2022-11-14T16:04:17;14.50;;;8.90;;
67500;SDS011;54349;52.528;19.760;2022-11-14T16:07:05;16.70;;;9.90;;
67500;SDS011;54349;52.528;19.760;2022-11-14T16:09:55;15.80;;;10.10;;
67500;SDS011;54349;52.528;19.760;2022-11-14T16:12:43;15.90;;;9.50;;
67500;SDS011;54349;52.528;19.760;2022-11-14T16:15:37;17.10;;;10.00;;
67500;SDS011;54349;52.528;19.760;2022-11-14T16:18:24;15.90;;;9.40;;
67500;SDS011;54349;52.528;19.760;2022-11-14T16:21:15;15.30;;;9.40;;
67500;SDS011;54349;52.528;19.760;2022-11-14T16:24:05;16.20;;;10.00;;
67500;SDS011;54349;52.528;19.760;2022-11-14T16:26:52;16.50;;;10.10;;
67500;SDS011;54349;52.528;19.760;2022-11-14T16:29:39;15.90;;;9.00;;
67500;SDS011;54349;52.528;19.760;2022-11-14T16:32:26;15.40;;;9.50;;
67500;SDS011;54349;52.528;19.760;2022-11-14T16:35:16;15.00;;;9.70;;
67500;SDS011;54349;52.528;19.760;2022-11-14T16:38:05;15.60;;;10.10;;
67500;SDS011;54349;52.528;19.760;2022-11-14T16:40:55;15.80;;;11.00;;
67500;SDS011;54349;52.528;19.760;2022-11-14T16:43:42;15.20;;;9.90;;
67500;SDS011;54349;52.528;19.760;2022-11-14T16:46:31;16.50;;;10.20;;
67500;SDS011;54349;52.528;19.760;2022-11-14T16:49:19;17.40;;;11.80;;
67500;SDS011;54349;52.528;19.760;2022-11-14T16:52:07;14.40;;;10.20;;
67500;SDS011;54349;52.528;19.760;2022-11-14T16:54:56;14.40;;;9.80;;
67500;SDS011;54349;52.528;19.760;2022-11-14T16:57:43;16.60;;;10.70;;
67500;SDS011;54349;52.528;19.760;2022-11-14T17:00:30;15.40;;;10.30;;
67500;SDS011;54349;52.528;19.760;2022-11-14T17:03:17;15.60;;;10.60;;
67500;SDS011;54349;52.528;19.760;2022-11-14T17:06:07;14.60;;;9.70;;
67500;SDS011;54349;52.528;19.760;2022-11-14T17:08:56;15.60;;;10.50;;
67500;SDS011;54349;52.528;19.760;2022-11-14T17:11:43;15.90;;;9.80;;
67500;SDS011;54349;52.528;19.760;2022-11-14T17:14:30;18.00;;;10.70;;
67500;SDS011;54349;52.528;19.760;2022-11-14T17:17:18;15.10;;;10.00;;
67500;SDS011;54349;52.528;19.760;2022-11-14T17:20:06;16.60;;;10.40;;
67500;SDS011;54349;52.528;19.760;2022-11-14T17:22:54;15.30;;;10.20;;
67500;SDS011;54349;52.528;19.760;2022-11-14T17:25:41;15.70;;;10.10;;
67500;SDS011;54349;52.528;19.760;2022-11-14T17:28:28;15.30;;;9.90;;
67500;SDS011;54349;52.528;19.760;2022-11-14T17:31:16;17.00;;;10.60;;
67500;SDS011;54349;52.528;19.760;2022-11-14T17:34:03;16.70;;;10.10;;
67500;SDS011;54349;52.528;19.760;2022-11-14T17:36:50;14.80;;;10.20;;
67500;SDS011;54349;52.528;19.760;2022-11-14T17:39:37;16.30;;;9.60;;
67500;SDS011;54349;52.528;19.760;2022-11-14T17:42:23;17.70;;;10.10;;
67500;SDS011;54349;52.528;19.760;2022-11-14T17:45:10;14.90;;;9.60;;
67500;SDS011;54349;52.528;19.760;2022-11-14T17:47:57;14.70;;;9.50;;
67500;SDS011;54349;52.528;19.760;2022-11-14T17:50:44;15.70;;;10.10;;
67500;SDS011;54349;52.528;19.760;2022-11-14T17:53:32;16.20;;;9.90;;
67500;SDS011;54349;52.528;19.760;2022-11-14T17:56:22;16.40;;;10.50;;
67500;SDS011;54349;52.528;19.760;2022-11-14T17:59:10;17.20;;;10.00;;
67500;SDS011;54349;52.528;19.760;2022-11-14T18:01:56;15.90;;;9.70;;
67500;SDS011;54349;52.528;19.760;2022-11-14T18:04:45;14.90;;;9.40;;
67500;SDS011;54349;52.528;19.760;2022-11-14T18:07:33;15.70;;;10.00;;
67500;SDS011;54349;52.528;19.760;2022-11-14T18:10:20;15.80;;;9.20;;
67500;SDS011;54349;52.528;19.760;2022-11-14T18:13:08;15.30;;;9.60;;
67500;SDS011;54349;52.528;19.760;2022-11-14T18:18:56;15.00;;;9.70;;
67500;SDS011;54349;52.528;19.760;2022-11-14T18:21:43;15.70;;;9.20;;
67500;SDS011;54349;52.528;19.760;2022-11-14T18:24:37;15.40;;;10.20;;
67500;SDS011;54349;52.528;19.760;2022-11-14T18:27:28;15.10;;;9.90;;